Time,TemperatureF,DewpointF,PressureIn,WindDirection,WindDirectionDegrees,WindSpeedMPH,WindSpeedGustMPH,Humidity,HourlyPrecipIn,Conditions,Clouds,dailyrainin,SoftwareType,DateUTC
2013-10-30 00:00:00,36.7,34.0,30.13,SW,235,0.0,0.0,90,0.00,,,0.21,Wunderground v.1.15,2013-10-30 07:00:00,
2013-10-30 00:06:00,36.6,33.9,30.13,SW,234,0.0,0.0,90,0.00,,,0.00,Wunderground v.1.15,2013-10-30 07:06:00,
2013-10-30 00:12:00,36.6,33.9,30.13,WSW,240,0.0,0.0,90,0.00,,,0.00,Wunderground v.1.15,2013-10-30 07:12:00,
2013-10-30 00:18:00,36.4,33.7,30.13,WSW,245,0.0,0.0,90,0.00,,,0.00,Wunderground v.1.15,2013-10-30 07:18:00,
2013-10-30 00:24:00,36.2,33.5,30.13,SW,230,0.0,0.0,90,0.00,,,0.00,Wunderground v.1.15,2013-10-30 07:24:00,
2013-10-30 00:29:00,36.2,33.5,30.13,SW,235,0.0,0.0,90,0.00,,,0.00,Wunderground v.1.15,2013-10-30 07:29:00,
2013-10-30 00:35:00,36.1,33.7,30.13,SW,232,0.0,0.0,91,0.00,,,0.00,Wunderground v.1.15,2013-10-30 07:35:00,
2013-10-30 00:41:00,35.9,33.5,30.13,SW,226,0.0,0.0,91,0.00,,,0.00,Wunderground v.1.15,2013-10-30 07:41:00,
2013-10-30 00:46:00,36.0,33.6,30.13,WSW,252,0.0,0.0,91,0.00,,,0.00,Wunderground v.1.15,2013-10-30 07:46:00,
2013-10-30 00:52:00,35.9,33.5,30.13,WSW,238,0.0,0.0,91,0.00,,,0.00,Wunderground v.1.15,2013-10-30 07:52:00,
2013-10-30 00:58:00,35.9,33.5,30.13,WSW,251,0.0,0.0,91,0.00,,,0.00,Wunderground v.1.15,2013-10-30 07:58:00,
2013-10-30 01:03:00,36.0,33.6,30.14,SW,233,0.0,0.0,91,0.00,,,0.00,Wunderground v.1.15,2013-10-30 08:03:00,
2013-10-30 01:09:00,36.2,33.5,30.14,SW,229,0.0,0.0,90,0.00,,,0.00,Wunderground v.1.15,2013-10-30 08:09:00,
2013-10-30 01:15:00,36.4,33.5,30.14,WSW,237,0.0,0.0,89,0.00,,,0.00,Wunderground v.1.15,2013-10-30 08:15:00,
2013-10-30 01:21:00,36.3,33.4,30.13,SW,230,0.0,0.0,89,0.00,,,0.00,Wunderground v.1.15,2013-10-30 08:21:00,
2013-10-30 01:27:00,36.5,33.6,30.14,SW,220,0.0,0.0,89,0.00,,,0.00,Wunderground v.1.15,2013-10-30 08:27:00,
2013-10-30 01:33:00,36.6,33.7,30.14,SW,229,0.0,0.0,89,0.00,,,0.00,Wunderground v.1.15,2013-10-30 08:33:00,
2013-10-30 01:39:00,36.5,33.6,30.14,SW,231,0.0,0.0,89,0.00,,,0.00,Wunderground v.1.15,2013-10-30 08:39:00,
2013-10-30 01:45:00,36.5,33.6,30.14,SW,235,0.0,0.0,89,0.00,,,0.00,Wunderground v.1.15,2013-10-30 08:45:00,
2013-10-30 01:51:00,36.7,33.5,30.14,SW,230,0.0,0.0,88,0.00,,,0.00,Wunderground v.1.15,2013-10-30 08:51:00,
2013-10-30 01:57:00,36.8,33.6,30.14,WSW,245,0.0,0.0,88,0.00,,,0.00,Wunderground v.1.15,2013-10-30 08:57:00,
2013-10-30 02:03:00,36.9,33.4,30.13,SW,234,0.0,0.0,87,0.00,,,0.00,Wunderground v.1.15,2013-10-30 09:03:00,
2013-10-30 02:08:00,36.8,33.3,30.13,SW,236,0.0,0.0,87,0.00,,,0.00,Wunderground v.1.15,2013-10-30 09:08:00,
2013-10-30 02:14:00,36.6,33.4,30.14,SW,236,0.0,0.0,88,0.00,,,0.00,Wunderground v.1.15,2013-10-30 09:14:00,
2013-10-30 02:20:00,36.6,33.4,30.14,SW,217,0.0,0.0,88,0.00,,,0.00,Wunderground v.1.15,2013-10-30 09:20:00,
2013-10-30 02:25:00,36.6,33.4,30.14,SW,217,0.0,0.0,88,0.00,,,0.00,Wunderground v.1.15,2013-10-30 09:25:00,
2013-10-30 02:31:00,36.5,33.6,30.14,SW,216,0.0,0.0,89,0.00,,,0.00,Wunderground v.1.15,2013-10-30 09:31:00,
2013-10-30 02:37:00,36.5,33.6,30.14,SSW,205,0.0,0.0,89,0.00,,,0.00,Wunderground v.1.15,2013-10-30 09:37:00,
2013-10-30 02:43:00,36.6,33.7,30.14,SW,218,0.0,0.0,89,0.00,,,0.00,Wunderground v.1.15,2013-10-30 09:43:00,
2013-10-30 02:49:00,36.5,33.6,30.14,SW,234,0.0,0.0,89,0.00,,,0.00,Wunderground v.1.15,2013-10-30 09:49:00,
2013-10-30 02:55:00,36.5,33.6,30.13,SW,225,0.0,0.0,89,0.00,,,0.00,Wunderground v.1.15,2013-10-30 09:55:00,
2013-10-30 03:00:00,36.5,33.3,30.13,SW,234,0.0,0.0,88,0.00,,,0.00,Wunderground v.1.15,2013-10-30 10:00:00,
2013-10-30 03:05:00,36.5,33.3,30.14,SW,232,0.0,0.0,88,0.00,,,0.00,Wunderground v.1.15,2013-10-30 10:05:00,
2013-10-30 03:11:00,36.3,33.4,30.14,SW,233,0.0,0.0,89,0.00,,,0.00,Wunderground v.1.15,2013-10-30 10:11:00,
2013-10-30 03:17:00,36.5,33.6,30.14,SSW,205,0.0,0.0,89,0.00,,,0.00,Wunderground v.1.15,2013-10-30 10:17:00,
2013-10-30 03:23:00,36.2,33.3,30.14,SSE,160,0.0,0.0,89,0.00,,,0.00,Wunderground v.1.15,2013-10-30 10:23:00,
2013-10-30 03:29:00,35.9,33.3,30.14,SSE,160,0.0,0.0,90,0.00,,,0.00,Wunderground v.1.15,2013-10-30 10:29:00,
2013-10-30 03:35:00,35.7,33.1,30.14,SSE,160,0.0,0.0,90,0.00,,,0.00,Wunderground v.1.15,2013-10-30 10:35:00,
2013-10-30 03:41:00,35.6,33.2,30.14,South,185,0.0,0.0,91,0.00,,,0.00,Wunderground v.1.15,2013-10-30 10:41:00,
2013-10-30 03:46:00,35.5,33.1,30.14,South,185,0.0,0.0,91,0.00,,,0.00,Wunderground v.1.15,2013-10-30 10:46:00,
2013-10-30 03:52:00,35.5,33.1,30.14,South,174,0.0,0.0,91,0.00,,,0.00,Wunderground v.1.15,2013-10-30 10:52:00,
2013-10-30 03:58:00,35.4,33.0,30.14,SSE,157,0.0,0.0,91,0.00,,,0.00,Wunderground v.1.15,2013-10-30 10:58:00,
2013-10-30 04:04:00,35.9,33.0,30.14,South,173,0.0,0.0,89,0.00,,,0.00,Wunderground v.1.15,2013-10-30 11:04:00,
2013-10-30 04:10:00,35.8,32.9,30.14,South,173,0.0,0.0,89,0.00,,,0.00,Wunderground v.1.15,2013-10-30 11:10:00,
2013-10-30 04:15:00,35.1,32.5,30.14,South,180,0.0,0.0,90,0.00,,,0.00,Wunderground v.1.15,2013-10-30 11:15:00,
2013-10-30 04:21:00,34.8,32.2,30.14,South,180,0.0,0.0,90,0.00,,,0.00,Wunderground v.1.15,2013-10-30 11:21:00,
2013-10-30 04:27:00,-999.9,-99.9,30.14,North,32767,-999.0,0.0,255,-99.99,,,0.00,Wunderground v.1.15,2013-10-30 11:27:00,
2013-10-30 04:32:00,-999.9,-99.9,30.14,North,32767,-999.0,0.0,255,-99.99,,,0.00,Wunderground v.1.15,2013-10-30 11:32:00,
2013-10-30 04:37:00,-999.9,-99.9,30.14,North,32767,-999.0,0.0,255,-99.99,,,0.00,Wunderground v.1.15,2013-10-30 11:37:00,
2013-10-30 04:44:00,-999.9,-99.9,30.14,North,32767,-999.0,0.0,255,-99.99,,,0.00,Wunderground v.1.15,2013-10-30 11:44:00,
2013-10-30 04:49:00,-999.9,-99.9,30.14,North,32767,-999.0,0.0,255,-99.99,,,0.00,Wunderground v.1.15,2013-10-30 11:49:00,
2013-10-30 04:54:00,-999.9,-99.9,30.14,North,32767,-999.0,0.0,255,-99.99,,,0.00,Wunderground v.1.15,2013-10-30 11:54:00,
2013-10-30 06:53:00,-999.9,-99.9,30.15,North,32767,-999.0,0.0,255,-99.99,,,0.00,Wunderground v.1.15,2013-10-30 13:53:00,
2013-10-30 06:59:00,-999.9,-99.9,30.15,North,32767,-999.0,0.0,255,-99.99,,,0.00,Wunderground v.1.15,2013-10-30 13:59:00,
2013-10-30 07:05:00,-999.9,-99.9,30.15,North,32767,-999.0,0.0,255,-99.99,,,0.00,Wunderground v.1.15,2013-10-30 14:05:00,
2013-10-30 07:12:00,-999.9,-99.9,30.16,North,32767,-999.0,0.0,255,-99.99,,,0.00,Wunderground v.1.15,2013-10-30 14:12:00,
2013-10-30 07:17:00,-999.9,-99.9,30.16,North,32767,-999.0,0.0,255,-99.99,,,0.00,Wunderground v.1.15,2013-10-30 14:17:00,
2013-10-30 07:22:00,-999.9,-99.9,30.16,North,32767,-999.0,0.0,255,-99.99,,,0.00,Wunderground v.1.15,2013-10-30 14:22:00,
2013-10-30 07:27:00,-999.9,-99.9,30.16,North,32767,-999.0,0.0,255,-99.99,,,0.00,Wunderground v.1.15,2013-10-30 14:27:00,
2013-10-30 07:33:00,-999.9,-99.9,30.17,North,32767,-999.0,0.0,255,-99.99,,,0.00,Wunderground v.1.15,2013-10-30 14:33:00,
2013-10-30 07:39:00,-999.9,-99.9,30.17,North,32767,-999.0,0.0,255,-99.99,,,0.00,Wunderground v.1.15,2013-10-30 14:39:00,
2013-10-30 07:44:00,-999.9,-99.9,30.17,North,32767,-999.0,0.0,255,-99.99,,,0.00,Wunderground v.1.15,2013-10-30 14:44:00,
2013-10-30 07:49:00,-999.9,-99.9,30.17,North,32767,-999.0,0.0,255,-99.99,,,0.00,Wunderground v.1.15,2013-10-30 14:49:00,
2013-10-30 07:54:00,-999.9,-99.9,30.18,North,32767,-999.0,0.0,255,-99.99,,,0.00,Wunderground v.1.15,2013-10-30 14:54:00,
2013-10-30 08:00:00,-999.9,-99.9,30.18,North,32767,-999.0,0.0,255,-99.99,,,0.00,Wunderground v.1.15,2013-10-30 15:00:00,
2013-10-30 08:06:00,33.1,31.3,30.18,West,260,0.0,0.0,93,0.00,,,0.00,Wunderground v.1.15,2013-10-30 15:06:00,
2013-10-30 08:12:00,33.5,31.7,30.19,West,260,0.0,0.0,93,0.00,,,0.00,Wunderground v.1.15,2013-10-30 15:12:00,
2013-10-30 08:18:00,33.9,32.1,30.19,West,260,0.0,0.0,93,0.00,,,0.00,Wunderground v.1.15,2013-10-30 15:18:00,
2013-10-30 08:24:00,35.0,33.2,30.19,West,260,0.0,0.0,93,0.00,,,0.00,Wunderground v.1.15,2013-10-30 15:24:00,
2013-10-30 08:30:00,34.9,32.5,30.19,SSW,205,0.0,0.0,91,0.00,,,0.00,Wunderground v.1.15,2013-10-30 15:30:00,
2013-10-30 08:36:00,34.8,32.4,30.19,SSW,206,0.0,0.0,91,0.00,,,0.00,Wunderground v.1.15,2013-10-30 15:36:00,
2013-10-30 08:42:00,34.9,32.3,30.19,SE,141,0.0,0.0,90,0.00,,,0.00,Wunderground v.1.15,2013-10-30 15:42:00,
2013-10-30 08:48:00,35.0,32.1,30.19,SE,134,0.0,0.0,89,0.00,,,0.00,Wunderground v.1.15,2013-10-30 15:48:00,
2013-10-30 08:54:00,35.3,32.4,30.20,SE,145,0.0,0.0,89,0.00,,,0.00,Wunderground v.1.15,2013-10-30 15:54:00,
2013-10-30 09:00:00,36.0,33.1,30.20,SE,145,0.0,0.0,89,0.00,,,0.00,Wunderground v.1.15,2013-10-30 16:00:00,
2013-10-30 09:05:00,37.1,34.2,30.20,SE,146,0.0,0.0,89,0.00,,,0.00,Wunderground v.1.15,2013-10-30 16:05:00,
2013-10-30 09:11:00,38.0,34.5,30.20,SE,146,0.0,0.0,87,0.00,,,0.00,Wunderground v.1.15,2013-10-30 16:11:00,
2013-10-30 09:17:00,39.7,35.3,30.21,SE,146,0.0,0.0,84,0.00,,,0.00,Wunderground v.1.15,2013-10-30 16:17:00,
2013-10-30 09:23:00,39.3,34.0,30.21,West,271,0.0,0.0,81,0.00,,,0.00,Wunderground v.1.15,2013-10-30 16:23:00,
2013-10-30 09:29:00,38.9,34.5,30.21,West,271,0.0,0.0,84,0.00,,,0.00,Wunderground v.1.15,2013-10-30 16:29:00,
2013-10-30 09:35:00,38.8,34.1,30.21,West,271,0.0,1.0,83,0.00,,,0.00,Wunderground v.1.15,2013-10-30 16:35:00,
2013-10-30 09:41:00,38.4,33.7,30.22,NW,317,0.0,0.0,83,0.00,,,0.00,Wunderground v.1.15,2013-10-30 16:41:00,
2013-10-30 09:47:00,38.2,33.8,30.22,NW,310,0.0,0.0,84,0.00,,,0.00,Wunderground v.1.15,2013-10-30 16:47:00,
2013-10-30 09:53:00,38.3,34.2,30.22,NW,321,0.0,0.0,85,0.00,,,0.00,Wunderground v.1.15,2013-10-30 16:53:00,
2013-10-30 09:59:00,38.5,34.4,30.22,North,356,0.0,0.0,85,0.00,,,0.00,Wunderground v.1.15,2013-10-30 16:59:00,
2013-10-30 10:05:00,38.8,34.7,30.21,NNW,340,0.0,0.0,85,0.00,,,0.00,Wunderground v.1.15,2013-10-30 17:05:00,
2013-10-30 10:11:00,39.1,34.7,30.21,NNE,23,0.0,0.0,84,0.00,,,0.00,Wunderground v.1.15,2013-10-30 17:11:00,
2013-10-30 10:17:00,39.2,34.8,30.22,North,349,0.0,0.0,84,0.00,,,0.00,Wunderground v.1.15,2013-10-30 17:17:00,
2013-10-30 10:23:00,39.4,34.7,30.21,NNE,14,0.0,0.0,83,0.00,,,0.00,Wunderground v.1.15,2013-10-30 17:23:00,
2013-10-30 10:29:00,39.6,34.9,30.21,NE,48,0.0,0.0,83,0.00,,,0.00,Wunderground v.1.15,2013-10-30 17:29:00,
2013-10-30 10:35:00,39.9,34.9,30.22,North,350,0.0,0.0,82,0.00,,,0.00,Wunderground v.1.15,2013-10-30 17:35:00,
2013-10-30 10:41:00,40.4,34.7,30.22,NNE,32,0.0,0.0,80,0.00,,,0.00,Wunderground v.1.15,2013-10-30 17:41:00,
2013-10-30 10:47:00,40.8,34.5,30.22,East,80,0.0,0.0,78,0.00,,,0.00,Wunderground v.1.15,2013-10-30 17:47:00,
2013-10-30 10:52:00,41.2,34.9,30.22,East,79,0.0,0.0,78,0.00,,,0.00,Wunderground v.1.15,2013-10-30 17:52:00,
2013-10-30 10:58:00,41.5,33.8,30.22,NNW,335,0.0,0.0,74,0.00,,,0.00,Wunderground v.1.15,2013-10-30 17:58:00,
2013-10-30 11:04:00,42.2,34.8,30.22,North,8,0.0,0.0,75,0.00,,,0.00,Wunderground v.1.15,2013-10-30 18:04:00,
2013-10-30 11:09:00,42.0,34.3,30.22,NNW,347,0.0,0.0,74,0.00,,,0.00,Wunderground v.1.15,2013-10-30 18:09:00,
2013-10-30 11:15:00,42.2,32.0,30.23,SSE,152,0.0,0.0,67,0.00,,,0.00,Wunderground v.1.15,2013-10-30 18:15:00,
2013-10-30 11:21:00,42.3,32.5,30.23,ESE,108,0.0,0.0,68,0.00,,,0.00,Wunderground v.1.15,2013-10-30 18:21:00,
2013-10-30 11:26:00,42.5,32.3,30.23,SE,135,0.0,0.0,67,0.00,,,0.00,Wunderground v.1.15,2013-10-30 18:26:00,
2013-10-30 11:32:00,43.3,33.1,30.22,ESE,103,0.0,0.0,67,0.00,,,0.00,Wunderground v.1.15,2013-10-30 18:32:00,
2013-10-30 11:38:00,42.6,31.7,30.22,North,354,0.0,0.0,65,0.00,,,0.00,Wunderground v.1.15,2013-10-30 18:38:00,
2013-10-30 11:44:00,42.6,32.8,30.22,ESE,117,0.0,0.0,68,0.00,,,0.00,Wunderground v.1.15,2013-10-30 18:44:00,
2013-10-30 11:50:00,42.8,33.0,30.22,ENE,65,0.0,0.0,68,0.00,,,0.00,Wunderground v.1.15,2013-10-30 18:50:00,
2013-10-30 11:55:00,42.7,32.1,30.22,NE,37,0.0,0.0,66,0.00,,,0.00,Wunderground v.1.15,2013-10-30 18:55:00,
2013-10-30 12:00:00,43.0,32.4,30.21,West,266,0.0,0.0,66,0.00,,,0.00,Wunderground v.1.15,2013-10-30 19:00:00,
2013-10-30 12:05:00,43.7,33.5,30.21,SE,124,0.0,0.0,67,0.00,,,0.00,Wunderground v.1.15,2013-10-30 19:05:00,
2013-10-30 12:11:00,44.0,33.0,30.21,SE,141,0.0,0.0,65,0.00,,,0.00,Wunderground v.1.15,2013-10-30 19:11:00,
2013-10-30 12:17:00,44.0,33.0,30.21,SSW,200,0.0,0.0,65,0.00,,,0.00,Wunderground v.1.15,2013-10-30 19:17:00,
2013-10-30 12:23:00,44.3,33.3,30.21,ESE,108,0.0,0.0,65,0.00,,,0.00,Wunderground v.1.15,2013-10-30 19:23:00,
2013-10-30 12:29:00,43.9,32.5,30.20,ENE,65,0.0,0.0,64,0.00,,,0.00,Wunderground v.1.15,2013-10-30 19:29:00,
2013-10-30 12:35:00,43.8,33.2,30.20,NNW,346,0.0,0.0,66,0.00,,,0.00,Wunderground v.1.15,2013-10-30 19:35:00,
2013-10-30 12:41:00,44.2,33.2,30.20,ESE,117,0.0,0.0,65,0.00,,,0.00,Wunderground v.1.15,2013-10-30 19:41:00,
2013-10-30 12:47:00,44.1,32.7,30.19,SSW,194,0.0,0.0,64,0.00,,,0.00,Wunderground v.1.15,2013-10-30 19:47:00,
2013-10-30 12:53:00,44.4,32.6,30.19,East,98,0.0,0.0,63,0.00,,,0.00,Wunderground v.1.15,2013-10-30 19:53:00,
2013-10-30 12:59:00,44.9,33.1,30.18,NE,53,0.0,0.0,63,0.00,,,0.00,Wunderground v.1.15,2013-10-30 19:59:00,
2013-10-30 13:05:00,44.7,32.9,30.18,ESE,109,0.0,0.0,63,0.00,,,0.00,Wunderground v.1.15,2013-10-30 20:05:00,
2013-10-30 13:11:00,44.8,33.7,30.18,SE,141,0.0,0.0,65,0.00,,,0.00,Wunderground v.1.15,2013-10-30 20:11:00,
2013-10-30 13:17:00,44.9,33.1,30.17,SW,214,0.0,0.0,63,0.00,,,0.00,Wunderground v.1.15,2013-10-30 20:17:00,
2013-10-30 13:23:00,44.9,33.5,30.17,East,96,0.0,0.0,64,0.00,,,0.00,Wunderground v.1.15,2013-10-30 20:23:00,
2013-10-30 13:29:00,44.7,32.9,30.17,SE,135,0.0,0.0,63,0.00,,,0.00,Wunderground v.1.15,2013-10-30 20:29:00,
2013-10-30 13:35:00,45.1,32.4,30.17,West,267,0.0,0.0,61,0.00,,,0.00,Wunderground v.1.15,2013-10-30 20:35:00,
2013-10-30 13:41:00,45.3,33.4,30.17,NE,46,0.0,0.0,63,0.00,,,0.00,Wunderground v.1.15,2013-10-30 20:41:00,
2013-10-30 13:47:00,45.5,34.0,30.17,South,179,0.0,0.0,64,0.00,,,0.00,Wunderground v.1.15,2013-10-30 20:47:00,
2013-10-30 13:53:00,45.6,33.3,30.17,NE,56,0.0,0.0,62,0.00,,,0.00,Wunderground v.1.15,2013-10-30 20:53:00,
2013-10-30 13:59:00,45.6,33.3,30.17,East,98,0.0,0.0,62,0.00,,,0.00,Wunderground v.1.15,2013-10-30 20:59:00,
2013-10-30 14:05:00,45.4,32.7,30.16,East,97,0.0,0.0,61,0.00,,,0.00,Wunderground v.1.15,2013-10-30 21:05:00,
2013-10-30 14:11:00,45.4,32.7,30.16,SW,226,0.0,0.0,61,0.00,,,0.00,Wunderground v.1.15,2013-10-30 21:11:00,
2013-10-30 14:17:00,45.6,32.9,30.16,NE,46,0.0,0.0,61,0.00,,,0.00,Wunderground v.1.15,2013-10-30 21:17:00,
2013-10-30 14:23:00,45.8,33.5,30.16,NW,325,0.0,0.0,62,0.00,,,0.00,Wunderground v.1.15,2013-10-30 21:23:00,
2013-10-30 14:29:00,46.0,33.3,30.16,NW,315,0.0,0.0,61,0.00,,,0.00,Wunderground v.1.15,2013-10-30 21:29:00,
2013-10-30 14:35:00,46.1,33.4,30.15,NNW,332,0.0,0.0,61,0.00,,,0.00,Wunderground v.1.15,2013-10-30 21:35:00,
2013-10-30 14:41:00,46.0,32.9,30.15,NE,53,0.0,0.0,60,0.00,,,0.00,Wunderground v.1.15,2013-10-30 21:41:00,
2013-10-30 14:47:00,45.9,33.2,30.15,NNE,30,0.0,0.0,61,0.00,,,0.00,Wunderground v.1.15,2013-10-30 21:47:00,
2013-10-30 14:53:00,46.0,33.3,30.15,NNE,31,0.0,0.0,61,0.00,,,0.00,Wunderground v.1.15,2013-10-30 21:53:00,
2013-10-30 14:59:00,46.2,33.5,30.15,NE,52,0.0,0.0,61,0.00,,,0.00,Wunderground v.1.15,2013-10-30 21:59:00,
2013-10-30 15:05:00,46.6,33.9,30.15,ESE,119,0.0,0.0,61,0.00,,,0.00,Wunderground v.1.15,2013-10-30 22:05:00,
2013-10-30 15:11:00,46.4,33.3,30.15,ENE,75,0.0,0.0,60,0.00,,,0.00,Wunderground v.1.15,2013-10-30 22:11:00,
2013-10-30 15:17:00,46.6,33.9,30.14,SE,124,0.0,0.0,61,0.00,,,0.00,Wunderground v.1.15,2013-10-30 22:17:00,
2013-10-30 15:23:00,47.2,34.0,30.14,SE,125,0.0,0.0,60,0.00,,,0.00,Wunderground v.1.15,2013-10-30 22:23:00,
2013-10-30 15:29:00,47.5,34.3,30.14,ESE,105,0.0,0.0,60,0.00,,,0.00,Wunderground v.1.15,2013-10-30 22:29:00,
2013-10-30 15:35:00,47.2,33.2,30.14,ESE,103,0.0,0.0,58,0.00,,,0.00,Wunderground v.1.15,2013-10-30 22:35:00,
2013-10-30 15:41:00,47.2,34.0,30.14,NE,44,0.0,0.0,60,0.00,,,0.00,Wunderground v.1.15,2013-10-30 22:41:00,
2013-10-30 15:47:00,47.1,33.5,30.15,NE,46,0.0,0.0,59,0.00,,,0.00,Wunderground v.1.15,2013-10-30 22:47:00,
2013-10-30 15:53:00,47.1,33.5,30.15,NW,321,0.0,0.0,59,0.00,,,0.00,Wunderground v.1.15,2013-10-30 22:53:00,
2013-10-30 15:59:00,47.1,33.5,30.14,East,100,0.0,0.0,59,0.00,,,0.00,Wunderground v.1.15,2013-10-30 22:59:00,
2013-10-30 16:05:00,47.1,33.5,30.14,NNE,20,0.0,0.0,59,0.00,,,0.00,Wunderground v.1.15,2013-10-30 23:05:00,
2013-10-30 16:11:00,47.1,33.9,30.14,NE,35,0.0,0.0,60,0.00,,,0.00,Wunderground v.1.15,2013-10-30 23:11:00,
2013-10-30 16:17:00,47.1,33.5,30.15,North,9,0.0,0.0,59,0.00,,,0.00,Wunderground v.1.15,2013-10-30 23:17:00,
2013-10-30 16:22:00,47.3,34.5,30.14,NE,56,0.0,0.0,61,0.00,,,0.00,Wunderground v.1.15,2013-10-30 23:22:00,
2013-10-30 16:28:00,47.2,33.6,30.14,East,82,0.0,0.0,59,0.00,,,0.00,Wunderground v.1.15,2013-10-30 23:28:00,
2013-10-30 16:34:00,47.3,34.1,30.14,NE,38,0.0,0.0,60,0.00,,,0.00,Wunderground v.1.15,2013-10-30 23:34:00,
2013-10-30 16:40:00,47.3,33.7,30.14,ENE,69,0.0,0.0,59,0.00,,,0.00,Wunderground v.1.15,2013-10-30 23:40:00,
2013-10-30 16:46:00,47.4,34.2,30.14,NE,52,0.0,0.0,60,0.00,,,0.00,Wunderground v.1.15,2013-10-30 23:46:00,
2013-10-30 16:52:00,47.3,34.1,30.14,ENE,76,0.0,0.0,60,0.00,,,0.00,Wunderground v.1.15,2013-10-30 23:52:00,
2013-10-30 16:58:00,47.2,34.0,30.14,ENE,58,0.0,0.0,60,0.00,,,0.00,Wunderground v.1.15,2013-10-30 23:58:00,
2013-10-30 17:04:00,47.1,34.3,30.15,NE,39,0.0,0.0,61,0.00,,,0.00,Wunderground v.1.15,2013-10-31 00:04:00,
2013-10-30 17:10:00,47.2,34.4,30.14,ENE,72,0.0,0.0,61,0.00,,,0.00,Wunderground v.1.15,2013-10-31 00:10:00,
2013-10-30 17:17:00,47.1,33.9,30.14,NE,49,1.0,4.0,60,0.00,,,0.00,Wunderground v.1.15,2013-10-31 00:17:00,
2013-10-30 17:22:00,47.0,34.2,30.14,NE,49,1.0,1.0,61,0.00,,,0.00,Wunderground v.1.15,2013-10-31 00:22:00,
2013-10-30 17:28:00,46.8,33.6,30.14,ENE,65,0.0,1.0,60,0.00,,,0.00,Wunderground v.1.15,2013-10-31 00:28:00,
2013-10-30 17:34:00,46.7,33.5,30.15,NE,49,0.0,0.0,60,0.00,,,0.00,Wunderground v.1.15,2013-10-31 00:34:00,
2013-10-30 17:40:00,46.5,34.6,30.15,NE,53,0.0,0.0,63,0.00,,,0.00,Wunderground v.1.15,2013-10-31 00:40:00,
2013-10-30 17:46:00,46.1,34.2,30.15,NE,39,0.0,0.0,63,0.00,,,0.00,Wunderground v.1.15,2013-10-31 00:46:00,
2013-10-30 17:52:00,45.7,34.6,30.15,NE,38,0.0,1.0,65,0.00,,,0.00,Wunderground v.1.15,2013-10-31 00:52:00,
2013-10-30 17:58:00,45.3,35.0,30.15,NE,37,0.0,1.0,67,0.00,,,0.00,Wunderground v.1.15,2013-10-31 00:58:00,
2013-10-30 18:04:00,44.9,35.0,30.15,NE,37,0.0,0.0,68,0.00,,,0.00,Wunderground v.1.15,2013-10-31 01:04:00,
2013-10-30 18:10:00,44.5,35.3,30.15,NE,37,0.0,0.0,70,0.00,,,0.00,Wunderground v.1.15,2013-10-31 01:10:00,
2013-10-30 18:15:00,44.2,34.7,30.15,NE,38,0.0,0.0,69,0.00,,,0.00,Wunderground v.1.15,2013-10-31 01:15:00,
2013-10-30 18:21:00,44.0,34.8,30.16,NE,38,0.0,1.0,70,0.00,,,0.00,Wunderground v.1.15,2013-10-31 01:21:00,
2013-10-30 18:27:00,43.5,35.1,30.16,NE,38,1.0,1.0,72,0.00,,,0.00,Wunderground v.1.15,2013-10-31 01:27:00,
2013-10-30 18:33:00,43.1,35.0,30.16,NE,39,0.0,1.0,73,0.00,,,0.00,Wunderground v.1.15,2013-10-31 01:33:00,
2013-10-30 18:39:00,42.8,34.7,30.17,NE,38,1.0,1.0,73,0.00,,,0.00,Wunderground v.1.15,2013-10-31 01:39:00,
2013-10-30 18:45:00,42.7,34.6,30.17,NE,39,1.0,1.0,73,0.00,,,0.00,Wunderground v.1.15,2013-10-31 01:45:00,
2013-10-30 18:51:00,42.5,34.8,30.17,NE,37,0.0,0.0,74,0.00,,,0.00,Wunderground v.1.15,2013-10-31 01:51:00,
2013-10-30 18:57:00,42.2,34.5,30.17,NE,38,0.0,0.0,74,0.00,,,0.00,Wunderground v.1.15,2013-10-31 01:57:00,
2013-10-30 19:03:00,42.0,34.3,30.17,NE,37,0.0,0.0,74,0.00,,,0.00,Wunderground v.1.15,2013-10-31 02:03:00,
2013-10-30 19:08:00,41.7,34.4,30.18,NE,37,0.0,0.0,75,0.00,,,0.00,Wunderground v.1.15,2013-10-31 02:08:00,
2013-10-30 19:15:00,41.4,34.4,30.18,NE,37,0.0,0.0,76,0.00,,,0.00,Wunderground v.1.15,2013-10-31 02:15:00,
2013-10-30 19:21:00,40.9,34.2,30.18,NE,51,0.0,0.0,77,0.00,,,0.00,Wunderground v.1.15,2013-10-31 02:21:00,
2013-10-30 19:27:00,40.6,34.3,30.18,East,79,0.0,0.0,78,0.00,,,0.00,Wunderground v.1.15,2013-10-31 02:27:00,
2013-10-30 19:33:00,40.4,34.1,30.18,East,79,0.0,0.0,78,0.00,,,0.00,Wunderground v.1.15,2013-10-31 02:33:00,
2013-10-30 19:39:00,40.3,34.0,30.19,East,79,0.0,0.0,78,0.00,,,0.00,Wunderground v.1.15,2013-10-31 02:39:00,
2013-10-30 19:45:00,40.1,34.1,30.19,East,79,0.0,0.0,79,0.00,,,0.00,Wunderground v.1.15,2013-10-31 02:45:00,
2013-10-30 19:51:00,40.1,34.1,30.19,East,79,0.0,0.0,79,0.00,,,0.00,Wunderground v.1.15,2013-10-31 02:51:00,
2013-10-30 19:57:00,40.0,34.0,30.19,East,79,0.0,0.0,79,0.00,,,0.00,Wunderground v.1.15,2013-10-31 02:57:00,
2013-10-30 20:03:00,39.9,33.9,30.20,NNE,19,0.0,0.0,79,0.00,,,0.00,Wunderground v.1.15,2013-10-31 03:03:00,
2013-10-30 20:09:00,39.9,33.9,30.20,North,350,0.0,0.0,79,0.00,,,0.00,Wunderground v.1.15,2013-10-31 03:09:00,
2013-10-30 20:15:00,39.8,33.8,30.20,NW,325,0.0,0.0,79,0.00,,,0.00,Wunderground v.1.15,2013-10-31 03:15:00,
2013-10-30 20:21:00,39.7,33.7,30.21,NW,313,0.0,0.0,79,0.00,,,0.00,Wunderground v.1.15,2013-10-31 03:21:00,
2013-10-30 20:27:00,39.4,33.7,30.21,NW,310,0.0,0.0,80,0.00,,,0.00,Wunderground v.1.15,2013-10-31 03:27:00,
2013-10-30 20:33:00,38.9,33.6,30.21,NW,310,0.0,0.0,81,0.00,,,0.00,Wunderground v.1.15,2013-10-31 03:33:00,
2013-10-30 20:39:00,38.6,33.9,30.21,West,281,0.0,0.0,83,0.00,,,0.00,Wunderground v.1.15,2013-10-31 03:39:00,
2013-10-30 20:45:00,38.4,34.0,30.21,West,276,0.0,0.0,84,0.00,,,0.00,Wunderground v.1.15,2013-10-31 03:45:00,
2013-10-30 20:51:00,38.5,34.1,30.21,West,276,0.0,0.0,84,0.00,,,0.00,Wunderground v.1.15,2013-10-31 03:51:00,
2013-10-30 20:57:00,38.5,34.1,30.22,West,276,0.0,0.0,84,0.00,,,0.00,Wunderground v.1.15,2013-10-31 03:57:00,
2013-10-30 21:01:00,38.1,34.0,30.22,West,276,0.0,0.0,85,0.00,,,0.00,Wunderground v.1.15,2013-10-31 04:01:00,
2013-10-30 21:04:00,37.8,33.7,30.22,West,276,0.0,0.0,85,0.00,,,0.00,Wunderground v.1.15,2013-10-31 04:04:00,
2013-10-30 21:05:00,37.7,33.6,30.22,West,276,0.0,0.0,85,0.00,,,0.00,Wunderground v.1.15,2013-10-31 04:05:00,
2013-10-30 21:06:00,37.6,33.8,30.22,West,276,0.0,0.0,86,0.00,,,0.00,Wunderground v.1.15,2013-10-31 04:06:00,
2013-10-30 21:12:00,37.2,33.7,30.22,West,276,0.0,0.0,87,0.00,,,0.00,Wunderground v.1.15,2013-10-31 04:12:00,
2013-10-30 21:17:00,37.2,33.7,30.23,West,273,0.0,0.0,87,0.00,,,0.00,Wunderground v.1.15,2013-10-31 04:17:00,
2013-10-30 21:19:00,37.1,33.6,30.23,West,273,0.0,0.0,87,0.00,,,0.00,Wunderground v.1.15,2013-10-31 04:19:00,
2013-10-30 21:25:00,37.0,33.5,30.23,West,271,0.0,0.0,87,0.00,,,0.00,Wunderground v.1.15,2013-10-31 04:25:00,
2013-10-30 21:31:00,36.8,33.6,30.23,West,265,0.0,0.0,88,0.00,,,0.00,Wunderground v.1.15,2013-10-31 04:31:00,
2013-10-30 21:37:00,36.7,33.5,30.23,West,260,0.0,0.0,88,0.00,,,0.00,Wunderground v.1.15,2013-10-31 04:37:00,
2013-10-30 21:43:00,36.9,34.0,30.23,West,260,0.0,0.0,89,0.00,,,0.00,Wunderground v.1.15,2013-10-31 04:43:00,
2013-10-30 21:49:00,37.0,33.5,30.23,WSW,251,0.0,0.0,87,0.00,,,0.00,Wunderground v.1.15,2013-10-31 04:49:00,
2013-10-30 21:55:00,37.0,33.5,30.23,WSW,251,0.0,0.0,87,0.00,,,0.00,Wunderground v.1.15,2013-10-31 04:55:00,
2013-10-30 22:00:00,36.7,32.9,30.23,SW,229,0.0,0.0,86,0.00,,,0.00,Wunderground v.1.15,2013-10-31 05:00:00,
2013-10-30 22:05:00,36.1,32.9,30.23,WSW,240,0.0,0.0,88,0.00,,,0.00,Wunderground v.1.15,2013-10-31 05:05:00,
2013-10-30 22:11:00,36.1,32.9,30.23,WSW,257,0.0,0.0,88,0.00,,,0.00,Wunderground v.1.15,2013-10-31 05:11:00,
2013-10-30 22:17:00,35.9,32.7,30.23,WSW,252,0.0,0.0,88,0.00,,,0.00,Wunderground v.1.15,2013-10-31 05:17:00,
2013-10-30 22:23:00,35.7,32.8,30.24,WSW,250,0.0,0.0,89,0.00,,,0.00,Wunderground v.1.15,2013-10-31 05:23:00,
2013-10-30 22:29:00,35.9,33.0,30.24,WSW,251,0.0,0.0,89,0.00,,,0.00,Wunderground v.1.15,2013-10-31 05:29:00,
2013-10-30 22:35:00,35.9,32.7,30.24,WSW,250,0.0,0.0,88,0.00,,,0.00,Wunderground v.1.15,2013-10-31 05:35:00,
2013-10-30 22:41:00,36.3,33.1,30.24,WSW,251,0.0,0.0,88,0.00,,,0.00,Wunderground v.1.15,2013-10-31 05:41:00,
2013-10-30 22:47:00,36.3,33.1,30.24,WSW,251,0.0,0.0,88,0.00,,,0.00,Wunderground v.1.15,2013-10-31 05:47:00,
2013-10-30 22:53:00,36.4,33.2,30.24,WSW,251,0.0,0.0,88,0.00,,,0.00,Wunderground v.1.15,2013-10-31 05:53:00,
2013-10-30 22:59:00,36.5,33.0,30.24,WSW,251,0.0,0.0,87,0.00,,,0.00,Wunderground v.1.15,2013-10-31 05:59:00,
2013-10-30 23:04:00,36.5,33.0,30.24,WSW,250,0.0,0.0,87,0.00,,,0.00,Wunderground v.1.15,2013-10-31 06:04:00,
2013-10-30 23:10:00,36.5,32.7,30.24,WSW,250,0.0,0.0,86,0.00,,,0.00,Wunderground v.1.15,2013-10-31 06:10:00,
2013-10-30 23:16:00,36.3,32.5,30.24,SW,231,0.0,0.0,86,0.00,,,0.00,Wunderground v.1.15,2013-10-31 06:16:00,
2013-10-30 23:21:00,35.6,31.8,30.24,SW,227,0.0,0.0,86,0.00,,,0.00,Wunderground v.1.15,2013-10-31 06:21:00,
2013-10-30 23:27:00,35.2,31.7,30.24,SW,230,0.0,0.0,87,0.00,,,0.00,Wunderground v.1.15,2013-10-31 06:27:00,
2013-10-30 23:33:00,35.0,31.8,30.24,WSW,243,0.0,0.0,88,0.00,,,0.00,Wunderground v.1.15,2013-10-31 06:33:00,
2013-10-30 23:39:00,34.8,31.6,30.24,WSW,238,0.0,0.0,88,0.00,,,0.00,Wunderground v.1.15,2013-10-31 06:39:00,
2013-10-30 23:45:00,35.0,31.8,30.24,WSW,238,0.0,0.0,88,0.00,,,0.00,Wunderground v.1.15,2013-10-31 06:45:00,
2013-10-30 23:51:00,34.8,31.6,30.24,SW,229,0.0,0.0,88,0.00,,,0.00,Wunderground v.1.15,2013-10-31 06:51:00,
2013-10-30 23:56:00,34.6,31.7,30.24,SW,233,0.0,0.0,89,0.00,,,0.00,Wunderground v.1.15,2013-10-31 06:56:00,